Time;durP1;ratioP1;P1;durP2;ratioP2;P2;SDS_P1;SDS_P2;PMS_P1;PMS_P2;Temp;Humidity;BMP_temperature;BMP_pressure;BME280_temperature;BME280_humidity;BME280_pressure;Samples;Min_cycle;Max_cycle;Signal;HPM_P1;HPM_P2
2022/04/04 00:01:18;;;;;;;0.90;0.90;;;0.80;99.90;;;;;;5024783;28;20576;-66
2022/04/04 00:03:45;;;;;;;1.00;1.00;;;0.80;99.90;;;;;;5019159;28;21047;-66
2022/04/04 00:06:12;;;;;;;1.23;1.20;;;0.70;99.90;;;;;;5023936;28;20200;-65
2022/04/04 00:08:39;;;;;;;1.00;1.00;;;0.60;99.90;;;;;;5032742;28;20218;-64
2022/04/04 00:11:06;;;;;;;1.10;1.10;;;0.60;99.90;;;;;;5025955;28;20331;-63
2022/04/04 00:13:33;;;;;;;1.20;1.20;;;0.50;99.90;;;;;;5040381;28;20231;-64
2022/04/04 00:16:02;;;;;;;1.10;1.10;;;0.50;99.90;;;;;;5035307;28;20205;-63
2022/04/04 00:18:29;;;;;;;1.17;1.17;;;0.40;99.90;;;;;;5005258;28;20233;-63
2022/04/04 00:20:55;;;;;;;1.03;1.03;;;0.40;99.90;;;;;;4999174;28;20202;-63
2022/04/04 00:23:22;;;;;;;1.20;1.20;;;0.30;99.90;;;;;;5007963;28;20712;-62
2022/04/04 00:25:49;;;;;;;1.10;1.10;;;0.30;99.90;;;;;;5031915;28;20273;-62
2022/04/04 00:28:22;;;;;;;1.10;1.10;;;0.30;99.90;;;;;;5036411;28;20212;-63
2022/04/04 00:30:49;;;;;;;1.10;1.10;;;0.30;99.90;;;;;;5036475;28;20248;-63
2022/04/04 00:33:17;;;;;;;1.00;1.00;;;0.30;99.90;;;;;;5026137;28;20235;-63
2022/04/04 00:35:44;;;;;;;1.10;1.10;;;0.30;99.90;;;;;;5027364;28;20205;-63
2022/04/04 00:38:11;;;;;;;1.00;1.00;;;0.30;99.90;;;;;;5023506;28;20284;-62
2022/04/04 00:40:38;;;;;;;1.00;1.00;;;0.30;99.90;;;;;;5027243;28;20284;-63
2022/04/04 00:43:06;;;;;;;1.10;1.10;;;0.30;99.90;;;;;;5027006;28;20594;-63
2022/04/04 00:45:33;;;;;;;1.42;1.30;;;0.30;99.90;;;;;;5024197;28;20285;-63
2022/04/04 00:48:00;;;;;;;1.10;1.10;;;0.30;99.90;;;;;;5029131;28;20205;-64
2022/04/04 00:50:28;;;;;;;1.10;1.10;;;0.30;99.90;;;;;;5029458;28;20204;-63
2022/04/04 00:52:55;;;;;;;1.00;1.00;;;0.30;99.90;;;;;;5026583;22;20245;-68
2022/04/04 00:55:23;;;;;;;1.10;1.10;;;0.30;99.90;;;;;;5004294;28;20256;-68
2022/04/04 00:57:50;;;;;;;1.23;1.20;;;0.30;99.90;;;;;;4998389;28;20196;-68
2022/04/04 01:00:19;;;;;;;1.10;1.10;;;0.20;99.90;;;;;;4992946;28;20226;-67
2022/04/04 01:02:47;;;;;;;1.20;1.20;;;0.20;99.90;;;;;;4988387;28;20278;-69
2022/04/04 01:05:14;;;;;;;1.17;1.17;;;0.20;99.90;;;;;;4987457;28;20206;-69
2022/04/04 01:07:42;;;;;;;1.13;1.13;;;0.20;99.90;;;;;;4984335;28;20206;-66
2022/04/04 01:10:10;;;;;;;1.45;1.40;;;0.00;99.90;;;;;;4985399;28;20230;-68
2022/04/04 01:12:38;;;;;;;1.07;1.07;;;0.00;99.90;;;;;;4984294;28;20225;-68
2022/04/04 01:15:06;;;;;;;1.17;1.17;;;-0.10;99.90;;;;;;4985043;28;20574;-68
2022/04/04 01:17:33;;;;;;;1.10;1.10;;;-0.10;99.90;;;;;;4985968;28;20241;-66
2022/04/04 01:20:00;;;;;;;0.90;0.90;;;0.00;99.90;;;;;;4984279;28;20294;-69
2022/04/04 01:22:26;;;;;;;1.27;1.23;;;0.00;99.90;;;;;;4985587;28;20218;-68
2022/04/04 01:24:59;;;;;;;1.00;1.00;;;-0.10;99.90;;;;;;4978414;28;20309;-68
2022/04/04 01:27:26;;;;;;;1.13;1.13;;;-0.10;99.90;;;;;;4983895;28;20201;-66
2022/04/04 01:29:53;;;;;;;1.00;1.00;;;-0.10;99.90;;;;;;4978794;28;20755;-66
2022/04/04 01:32:20;;;;;;;1.13;1.13;;;-0.10;99.90;;;;;;4975491;28;20780;-67
2022/04/04 01:34:47;;;;;;;1.10;1.10;;;-0.10;99.90;;;;;;4976232;28;20294;-68
2022/04/04 01:37:14;;;;;;;1.13;1.13;;;-0.10;99.90;;;;;;4975838;28;20257;-66
2022/04/04 01:39:41;;;;;;;1.13;1.13;;;-0.10;99.90;;;;;;4977102;28;20242;-66
2022/04/04 01:42:10;;;;;;;1.13;1.13;;;-0.10;99.90;;;;;;4979930;28;21942;-67
2022/04/04 01:44:36;;;;;;;1.27;1.27;;;-0.10;99.90;;;;;;4978858;28;20297;-68
2022/04/04 01:47:05;;;;;;;1.10;1.10;;;-0.10;99.90;;;;;;4984197;28;20206;-69
2022/04/04 01:49:31;;;;;;;1.00;1.00;;;-0.10;99.90;;;;;;4992392;28;20250;-69
2022/04/04 01:51:58;;;;;;;1.27;1.17;;;-0.10;99.90;;;;;;4973334;28;20309;-66
2022/04/04 01:54:25;;;;;;;1.00;1.00;;;-0.10;99.90;;;;;;4972463;28;20215;-68
2022/04/04 01:56:52;;;;;;;1.20;1.20;;;-0.10;99.90;;;;;;4973003;28;20214;-66
2022/04/04 01:59:20;;;;;;;1.07;1.07;;;-0.10;99.90;;;;;;4976673;28;20605;-67
2022/04/04 02:01:47;;;;;;;1.20;1.20;;;-0.10;99.90;;;;;;4975857;28;20210;-69
2022/04/04 02:04:14;;;;;;;0.80;0.80;;;-0.10;99.90;;;;;;4972084;28;20309;-68
2022/04/04 02:06:41;;;;;;;1.13;1.13;;;-0.20;99.90;;;;;;4975806;28;20237;-67
2022/04/04 02:09:09;;;;;;;1.20;1.20;;;-0.20;99.90;;;;;;4980611;28;20237;-68
2022/04/04 02:11:36;;;;;;;1.00;1.00;;;-0.20;99.90;;;;;;4993922;28;20230;-68
2022/04/04 02:14:03;;;;;;;1.10;1.10;;;-0.20;99.90;;;;;;4991770;28;20234;-67
2022/04/04 02:16:33;;;;;;;1.10;1.10;;;-0.20;99.90;;;;;;4985680;28;20257;-68
2022/04/04 02:19:00;;;;;;;0.93;0.93;;;-0.20;99.90;;;;;;4985591;28;20569;-69
2022/04/04 02:21:27;;;;;;;1.05;1.05;;;-0.10;99.90;;;;;;4976640;28;20238;-68
2022/04/04 02:23:54;;;;;;;1.07;1.07;;;-0.20;99.90;;;;;;4979378;28;20222;-68
2022/04/04 02:26:21;;;;;;;1.00;1.00;;;-0.30;99.90;;;;;;4979620;28;20224;-68
2022/04/04 02:28:48;;;;;;;0.90;0.90;;;-0.20;99.90;;;;;;4980302;28;20211;-70
2022/04/04 02:31:15;;;;;;;1.00;1.00;;;-0.20;99.90;;;;;;4976685;28;20320;-68
2022/04/04 02:33:43;;;;;;;1.10;1.10;;;-0.30;99.90;;;;;;4982296;28;20226;-66
2022/04/04 02:36:11;;;;;;;0.97;0.97;;;-0.20;99.90;;;;;;4979948;28;20205;-66
2022/04/04 02:38:38;;;;;;;0.85;0.85;;;-0.30;99.90;;;;;;4985541;28;20285;-66
2022/04/04 02:41:05;;;;;;;1.00;1.00;;;-0.30;99.90;;;;;;4979141;28;20198;-67
2022/04/04 02:43:32;;;;;;;1.00;1.00;;;-0.40;99.90;;;;;;4978512;28;20236;-67
2022/04/04 02:45:59;;;;;;;1.00;1.00;;;-0.40;99.90;;;;;;4980187;28;20237;-67
2022/04/04 02:48:26;;;;;;;0.90;0.90;;;-0.40;99.90;;;;;;4977351;28;20293;-67
2022/04/04 02:50:54;;;;;;;1.27;1.17;;;-0.50;99.90;;;;;;4977922;28;20207;-68
2022/04/04 02:53:21;;;;;;;1.00;1.00;;;-0.60;99.90;;;;;;4979688;28;20594;-66
2022/04/04 02:58:33;;;;;;;1.20;1.10;;;-0.50;99.90;;;;;;4992271;28;20252;-67
2022/04/04 03:01:00;;;;;;;1.10;1.10;;;-0.50;99.90;;;;;;4995445;28;20281;-66
2022/04/04 03:03:27;;;;;;;0.85;0.85;;;-0.50;99.90;;;;;;4994048;28;20564;-67
2022/04/04 03:05:55;;;;;;;1.10;1.10;;;-0.50;99.90;;;;;;4993074;28;20698;-69
2022/04/04 03:08:22;;;;;;;1.10;1.10;;;-0.50;99.90;;;;;;4995529;28;20241;-68
2022/04/04 03:10:49;;;;;;;1.17;1.17;;;-0.50;99.90;;;;;;4989537;28;20206;-69
2022/04/04 03:13:16;;;;;;;1.00;1.00;;;-0.50;99.90;;;;;;4983741;28;20254;-68
2022/04/04 03:15:43;;;;;;;0.93;0.93;;;-0.50;99.90;;;;;;4977547;28;20297;-68
2022/04/04 03:18:10;;;;;;;1.07;1.07;;;-0.50;99.90;;;;;;4976764;28;20635;-68
2022/04/04 03:20:37;;;;;;;1.03;0.90;;;-0.50;99.90;;;;;;4977220;28;20211;-68
2022/04/04 03:23:06;;;;;;;0.90;0.90;;;-0.50;99.90;;;;;;4976756;28;20249;-69
2022/04/04 03:25:33;;;;;;;1.05;1.05;;;-0.60;99.90;;;;;;4975329;28;20315;-68
2022/04/04 03:28:00;;;;;;;0.95;0.95;;;-0.60;99.90;;;;;;4975474;28;20217;-68
2022/04/04 03:30:29;;;;;;;1.00;1.00;;;-0.60;99.90;;;;;;4976218;28;20202;-66
2022/04/04 03:32:57;;;;;;;0.97;0.97;;;-0.60;99.90;;;;;;4975743;28;20321;-69
2022/04/04 03:35:26;;;;;;;1.00;1.00;;;-0.70;99.90;;;;;;4975195;28;20238;-69
2022/04/04 03:37:54;;;;;;;0.95;0.95;;;-0.70;99.90;;;;;;4975790;28;20426;-68
2022/04/04 03:40:23;;;;;;;0.90;0.90;;;-0.70;99.90;;;;;;4984227;28;20207;-68
2022/04/04 03:42:52;;;;;;;0.90;0.90;;;-0.70;99.90;;;;;;4986127;28;20219;-69
2022/04/04 03:45:20;;;;;;;1.20;1.20;;;-0.70;99.90;;;;;;4982867;28;20266;-68
2022/04/04 03:47:49;;;;;;;1.10;1.10;;;-0.70;99.90;;;;;;4986515;28;20266;-67
2022/04/04 03:50:17;;;;;;;1.10;1.10;;;-0.60;99.90;;;;;;4978703;28;20646;-68
2022/04/04 03:52:47;;;;;;;0.90;0.90;;;-0.70;99.90;;;;;;4975772;28;20245;-67
2022/04/04 03:55:16;;;;;;;1.00;1.00;;;-0.70;99.90;;;;;;4984771;28;20198;-69
2022/04/04 03:57:45;;;;;;;1.05;1.05;;;-0.70;99.90;;;;;;4982623;28;20211;-69
2022/04/04 04:00:13;;;;;;;1.00;1.00;;;-0.80;99.90;;;;;;4990428;28;20470;-69
2022/04/04 04:02:40;;;;;;;0.98;0.98;;;-0.80;99.90;;;;;;4989286;28;20219;-67
2022/04/04 04:05:08;;;;;;;1.00;1.00;;;-0.80;99.90;;;;;;4989251;28;20217;-69
2022/04/04 04:07:35;;;;;;;0.80;0.80;;;-0.80;99.90;;;;;;4989367;28;20238;-69
2022/04/04 04:10:02;;;;;;;1.00;1.00;;;-0.70;99.90;;;;;;4990625;28;20234;-69
2022/04/04 04:12:29;;;;;;;0.80;0.80;;;-0.80;99.90;;;;;;4989325;28;20230;-68
2022/04/04 04:14:57;;;;;;;1.00;1.00;;;-0.80;99.90;;;;;;4988845;28;20684;-69
2022/04/04 04:17:25;;;;;;;1.00;1.00;;;-0.80;99.90;;;;;;4975188;28;20277;-68
2022/04/04 04:22:36;;;;;;;1.10;1.10;;;-0.80;99.90;;;;;;4994235;28;20236;-68
2022/04/04 04:25:05;;;;;;;1.03;1.03;;;-0.90;99.90;;;;;;4996281;28;20301;-66
2022/04/04 04:27:32;;;;;;;1.10;1.10;;;-0.90;99.90;;;;;;5011094;28;20217;-69
2022/04/04 04:30:00;;;;;;;1.10;1.10;;;-0.90;99.90;;;;;;4996331;28;20224;-67
2022/04/04 04:32:27;;;;;;;1.10;1.10;;;-0.90;99.90;;;;;;4993813;28;20226;-65
2022/04/04 04:34:54;;;;;;;1.25;1.15;;;-0.90;99.90;;;;;;4997198;28;20245;-69
2022/04/04 04:37:21;;;;;;;1.00;1.00;;;-0.90;99.90;;;;;;4997024;28;20242;-68
2022/04/04 04:39:49;;;;;;;1.10;1.10;;;-0.90;99.90;;;;;;4997033;28;20202;-67
2022/04/04 04:42:16;;;;;;;1.23;1.20;;;-0.90;99.90;;;;;;4995036;28;20233;-67
2022/04/04 04:44:43;;;;;;;0.90;0.90;;;-0.90;99.90;;;;;;4994696;28;20206;-69
2022/04/04 04:47:12;;;;;;;1.00;1.00;;;-0.90;99.90;;;;;;4994159;28;20209;-67
2022/04/04 04:49:39;;;;;;;1.07;1.07;;;-0.90;99.90;;;;;;4987507;28;20222;-68
2022/04/04 04:52:06;;;;;;;1.10;1.10;;;-0.90;99.90;;;;;;4974643;28;20341;-69
2022/04/04 04:54:33;;;;;;;2.33;1.20;;;-0.90;99.90;;;;;;4974648;28;20254;-68
2022/04/04 04:57:00;;;;;;;1.02;1.02;;;-0.90;99.90;;;;;;4974778;28;20238;-68
2022/04/04 04:59:27;;;;;;;1.10;1.10;;;-1.00;99.90;;;;;;4974736;28;20309;-66
2022/04/04 05:01:54;;;;;;;1.05;1.05;;;-0.90;99.90;;;;;;4974570;28;20213;-64
2022/04/04 05:04:22;;;;;;;1.10;1.10;;;-0.90;99.90;;;;;;4974206;28;20227;-66
2022/04/04 05:06:49;;;;;;;1.00;1.00;;;-0.90;99.90;;;;;;4976827;28;20214;-65
2022/04/04 05:09:17;;;;;;;1.00;1.00;;;-0.80;99.90;;;;;;4975740;28;20210;-65
2022/04/04 05:11:44;;;;;;;1.00;1.00;;;-0.70;99.90;;;;;;4983510;28;20208;-64
2022/04/04 05:14:15;;;;;;;1.00;1.00;;;-0.70;99.90;;;;;;4994529;28;20312;-64
2022/04/04 05:16:43;;;;;;;1.00;1.00;;;-0.70;99.90;;;;;;4993732;28;20197;-64
2022/04/04 05:19:10;;;;;;;1.20;1.20;;;-0.70;99.90;;;;;;4989421;28;20296;-64
2022/04/04 05:21:38;;;;;;;1.00;1.00;;;-0.70;99.90;;;;;;4996319;28;20252;-65
2022/04/04 05:24:06;;;;;;;1.10;1.10;;;-0.70;99.90;;;;;;4996086;28;20221;-65
2022/04/04 05:26:33;;;;;;;1.00;1.00;;;-0.70;99.90;;;;;;4996237;28;20205;-64
2022/04/04 05:29:01;;;;;;;1.20;1.10;;;-0.70;99.90;;;;;;4996276;28;20241;-65
2022/04/04 05:31:30;;;;;;;1.00;1.00;;;-0.70;99.90;;;;;;4996846;28;20217;-65
2022/04/04 05:33:58;;;;;;;1.10;1.10;;;-0.70;99.90;;;;;;4996442;28;20731;-65
2022/04/04 05:36:25;;;;;;;1.00;1.00;;;-0.70;99.90;;;;;;4995039;28;20209;-65
2022/04/04 05:38:54;;;;;;;1.00;1.00;;;-0.70;99.90;;;;;;4994956;28;20233;-66
2022/04/04 05:41:21;;;;;;;1.20;1.20;;;-0.70;99.90;;;;;;4994974;28;20208;-65
2022/04/04 05:43:48;;;;;;;1.23;1.17;;;-0.70;99.90;;;;;;4995209;28;20226;-64
2022/04/04 05:46:16;;;;;;;1.33;1.20;;;-0.60;99.90;;;;;;4994522;28;20268;-64
2022/04/04 05:48:44;;;;;;;1.17;1.17;;;-0.60;99.90;;;;;;4995071;28;20248;-64
2022/04/04 05:51:13;;;;;;;1.07;1.07;;;-0.60;99.90;;;;;;4996395;28;20734;-65
2022/04/04 05:53:40;;;;;;;1.20;1.20;;;-0.70;99.90;;;;;;4995415;28;20230;-65
2022/04/04 05:56:08;;;;;;;1.10;1.10;;;-0.70;99.90;;;;;;4996049;28;20296;-65
2022/04/04 05:58:36;;;;;;;1.10;1.10;;;-0.60;99.90;;;;;;4994476;28;20206;-64
2022/04/04 06:01:03;;;;;;;0.97;0.97;;;-0.60;99.90;;;;;;4991834;28;20233;-64
2022/04/04 06:03:29;;;;;;;1.03;1.03;;;-0.50;99.90;;;;;;4975365;28;20710;-63
2022/04/04 06:05:56;;;;;;;1.33;1.20;;;-0.50;99.90;;;;;;4985898;28;20664;-65
2022/04/04 06:08:23;;;;;;;1.10;1.10;;;-0.50;99.90;;;;;;4983413;28;20284;-64
2022/04/04 06:10:50;;;;;;;1.13;1.13;;;-0.50;99.90;;;;;;4983073;28;20270;-65
2022/04/04 06:13:20;;;;;;;1.17;1.17;;;-0.40;99.90;;;;;;4980676;28;20689;-65
2022/04/04 06:15:47;;;;;;;1.10;1.10;;;-0.40;99.90;;;;;;4977757;28;20306;-64
2022/04/04 06:18:15;;;;;;;0.90;0.90;;;-0.30;99.90;;;;;;4991302;28;20305;-65
2022/04/04 06:20:42;;;;;;;0.90;0.90;;;-0.30;99.90;;;;;;4991524;28;20206;-65
2022/04/04 06:23:11;;;;;;;1.20;1.20;;;-0.20;99.90;;;;;;4991735;28;20222;-65
2022/04/04 06:25:39;;;;;;;1.20;1.20;;;-0.20;99.90;;;;;;4991971;28;20209;-64
2022/04/04 06:28:06;;;;;;;1.30;1.30;;;-0.10;99.90;;;;;;4985935;28;20202;-64
2022/04/04 06:30:35;;;;;;;0.90;0.90;;;0.10;99.90;;;;;;4985645;28;20698;-65
2022/04/04 06:33:04;;;;;;;1.10;1.10;;;0.10;99.90;;;;;;4991577;28;20300;-66
2022/04/04 06:35:31;;;;;;;1.20;1.20;;;0.20;99.90;;;;;;4991947;28;20245;-63
2022/04/04 06:38:00;;;;;;;1.10;1.03;;;0.30;99.90;;;;;;4992264;28;20233;-65
2022/04/04 06:40:27;;;;;;;1.10;1.10;;;0.40;99.90;;;;;;4987678;28;20211;-65
2022/04/04 06:42:56;;;;;;;1.30;1.20;;;0.50;99.90;;;;;;4981022;28;20218;-65
2022/04/04 06:45:23;;;;;;;0.90;0.90;;;0.60;99.90;;;;;;4975927;28;20642;-64
2022/04/04 06:47:52;;;;;;;1.10;1.10;;;0.60;99.90;;;;;;4978898;28;20257;-65
2022/04/04 06:50:19;;;;;;;0.97;0.97;;;0.60;99.90;;;;;;4983961;28;20693;-66
2022/04/04 06:52:46;;;;;;;0.90;0.90;;;0.70;99.90;;;;;;4987340;28;20678;-65
2022/04/04 06:55:13;;;;;;;1.00;1.00;;;0.70;99.90;;;;;;4996441;28;20260;-64
2022/04/04 06:57:41;;;;;;;0.90;0.90;;;0.80;99.90;;;;;;5000317;28;20270;-66
2022/04/04 07:00:09;;;;;;;0.93;0.93;;;0.90;99.90;;;;;;4990536;28;20269;-65
2022/04/04 07:02:37;;;;;;;0.93;0.93;;;1.00;99.90;;;;;;4985213;28;20218;-64
2022/04/04 07:05:08;;;;;;;1.10;1.10;;;1.20;99.90;;;;;;4990900;28;20210;-65
2022/04/04 07:07:35;;;;;;;1.10;1.07;;;1.30;99.90;;;;;;4991051;28;20198;-65
2022/04/04 07:10:03;;;;;;;0.90;0.90;;;1.40;99.90;;;;;;4986774;28;20261;-66
2022/04/04 07:12:30;;;;;;;1.10;1.10;;;1.50;99.90;;;;;;4983525;28;20280;-65
2022/04/04 07:14:57;;;;;;;0.90;0.90;;;1.60;99.90;;;;;;4983067;28;20640;-65
2022/04/04 07:17:24;;;;;;;1.00;1.00;;;1.60;99.90;;;;;;4982042;28;20209;-66
2022/04/04 07:19:52;;;;;;;0.80;0.80;;;1.80;99.90;;;;;;4985425;28;20223;-65
2022/04/04 07:22:21;;;;;;;1.00;1.00;;;1.90;99.90;;;;;;4982849;28;20555;-65
2022/04/04 07:24:48;;;;;;;1.10;1.10;;;2.00;99.90;;;;;;4983265;28;20241;-66
2022/04/04 07:27:15;;;;;;;0.90;0.90;;;2.20;99.90;;;;;;4985089;28;20664;-65
2022/04/04 07:29:42;;;;;;;1.00;1.00;;;2.30;99.90;;;;;;4980098;28;20294;-66
2022/04/04 07:32:10;;;;;;;1.00;1.00;;;2.40;99.90;;;;;;4983323;28;20579;-66
2022/04/04 07:34:37;;;;;;;0.90;0.90;;;2.50;99.90;;;;;;4990353;28;20226;-65
2022/04/04 07:37:05;;;;;;;1.03;1.00;;;2.70;99.90;;;;;;4993327;28;20232;-66
2022/04/04 07:39:33;;;;;;;1.00;1.00;;;2.90;99.90;;;;;;4990709;28;20294;-65
2022/04/04 07:42:00;;;;;;;1.00;1.00;;;3.00;99.90;;;;;;4983984;28;20257;-65
2022/04/04 07:44:27;;;;;;;1.10;1.10;;;3.10;99.90;;;;;;4987168;28;20750;-66
2022/04/04 07:46:54;;;;;;;0.90;0.90;;;3.30;99.90;;;;;;4986046;28;20552;-66
2022/04/04 07:49:21;;;;;;;1.10;1.10;;;3.50;99.90;;;;;;4989340;28;20554;-65
2022/04/04 07:51:48;;;;;;;1.17;1.10;;;3.60;99.90;;;;;;4988787;28;20726;-65
2022/04/04 07:54:15;;;;;;;1.20;1.20;;;3.80;99.90;;;;;;4986106;28;20230;-65
2022/04/04 07:56:43;;;;;;;1.07;1.00;;;4.00;99.90;;;;;;4986294;28;20206;-66
2022/04/04 07:59:11;;;;;;;0.90;0.90;;;4.20;99.90;;;;;;4980662;28;20209;-67
2022/04/04 08:01:38;;;;;;;1.37;1.27;;;4.40;99.90;;;;;;4985584;28;20289;-67
2022/04/04 08:04:05;;;;;;;1.10;1.10;;;4.60;99.90;;;;;;4981199;28;20715;-66
2022/04/04 08:06:32;;;;;;;1.30;1.30;;;4.70;99.90;;;;;;4985920;28;20205;-66
2022/04/04 08:08:59;;;;;;;1.10;1.10;;;4.90;99.90;;;;;;4986366;28;20230;-66
2022/04/04 08:11:26;;;;;;;1.20;1.20;;;5.00;99.90;;;;;;4990142;28;20288;-65
2022/04/04 08:13:54;;;;;;;1.03;1.03;;;5.20;99.90;;;;;;4981312;28;20758;-66
2022/04/04 08:16:22;;;;;;;1.00;1.00;;;5.40;99.90;;;;;;4981717;28;20656;-65
2022/04/04 08:18:49;;;;;;;1.20;1.20;;;5.60;99.90;;;;;;4978534;28;20209;-66
2022/04/04 08:21:16;;;;;;;1.03;1.03;;;5.70;99.90;;;;;;4974635;28;20788;-66
2022/04/04 08:23:44;;;;;;;1.10;1.10;;;5.90;99.90;;;;;;4979373;28;20270;-66
2022/04/04 08:26:11;;;;;;;1.23;1.20;;;6.10;99.90;;;;;;4975778;28;20289;-66
2022/04/04 08:28:38;;;;;;;1.20;1.20;;;6.40;99.90;;;;;;4978274;28;20308;-64
2022/04/04 08:31:06;;;;;;;1.10;1.10;;;6.40;99.90;;;;;;4975906;28;20209;-66
2022/04/04 08:33:33;;;;;;;1.00;1.00;;;6.50;99.90;;;;;;4975463;28;20226;-65
2022/04/04 08:36:03;;;;;;;1.10;1.10;;;6.50;99.90;;;;;;4976592;28;20889;-66
2022/04/04 08:38:30;;;;;;;1.80;1.70;;;6.50;99.90;;;;;;4987193;28;20222;-67
2022/04/04 08:41:02;;;;;;;1.10;1.10;;;6.70;99.90;;;;;;5000223;28;20238;-64
2022/04/04 08:43:33;;;;;;;1.10;1.10;;;7.10;99.90;;;;;;4976253;28;20597;-66
2022/04/04 08:46:00;;;;;;;1.00;1.00;;;7.00;99.90;;;;;;4973551;28;20729;-64
2022/04/04 08:48:31;;;;;;;0.90;0.90;;;7.20;99.90;;;;;;4977333;28;20290;-67
2022/04/04 08:50:58;;;;;;;1.47;1.20;;;7.40;99.90;;;;;;4972430;28;20221;-66
2022/04/04 08:53:25;;;;;;;1.17;1.17;;;7.40;99.90;;;;;;4982157;28;20313;-67
2022/04/04 08:55:52;;;;;;;1.20;1.20;;;7.40;99.90;;;;;;4977172;28;20242;-67
2022/04/04 08:58:19;;;;;;;0.90;0.90;;;7.60;99.90;;;;;;4981512;28;20202;-64
2022/04/04 09:00:45;;;;;;;1.20;1.20;;;7.80;99.90;;;;;;4981963;28;20230;-67
2022/04/04 09:03:20;;;;;;;1.10;1.10;;;7.80;99.90;;;;;;4982183;28;20305;-66
2022/04/04 09:05:53;;;;;;;1.47;1.30;;;7.80;99.90;;;;;;4990422;28;20250;-65
2022/04/04 09:08:21;;;;;;;1.10;1.10;;;7.80;99.90;;;;;;4987119;28;20289;-64
2022/04/04 09:10:48;;;;;;;1.30;1.30;;;7.90;99.90;;;;;;4985198;28;20215;-66
2022/04/04 09:13:17;;;;;;;1.30;1.30;;;8.00;99.90;;;;;;4992968;28;20230;-67
2022/04/04 09:15:54;;;;;;;1.20;1.20;;;8.10;99.90;;;;;;4984015;28;20694;-67
2022/04/04 09:18:40;;;;;;;1.23;1.10;;;8.20;99.90;;;;;;4972295;28;20206;-66
2022/04/04 09:21:10;;;;;;;1.03;1.03;;;8.40;99.90;;;;;;4980133;28;20209;-64
2022/04/04 09:23:54;;;;;;;1.30;1.20;;;8.60;99.90;;;;;;4972821;28;20285;-66
2022/04/04 09:26:29;;;;;;;1.20;1.20;;;8.60;99.90;;;;;;4973368;28;20205;-67
2022/04/04 09:28:56;;;;;;;1.27;1.27;;;8.80;99.90;;;;;;4981054;28;20599;-67
2022/04/04 09:31:24;;;;;;;1.10;1.10;;;8.80;99.90;;;;;;4984391;28;20285;-65
2022/04/04 09:33:51;;;;;;;1.07;1.07;;;8.90;99.90;;;;;;4976975;28;20249;-67
2022/04/04 09:36:20;;;;;;;1.33;1.23;;;9.10;99.90;;;;;;4971561;28;20221;-67
2022/04/04 09:38:56;;;;;;;1.17;1.17;;;9.30;99.90;;;;;;4973586;28;20211;-65
2022/04/04 09:41:25;;;;;;;1.27;1.20;;;9.30;99.90;;;;;;4979700;28;20213;-66
2022/04/04 09:43:52;;;;;;;0.90;0.90;;;9.30;99.90;;;;;;4977859;28;20697;-67
2022/04/04 09:46:20;;;;;;;1.17;1.17;;;9.30;99.90;;;;;;4970520;28;20218;-67
2022/04/04 09:49:07;;;;;;;1.33;1.23;;;9.20;99.90;;;;;;4975036;28;20206;-66
2022/04/04 09:51:44;;;;;;;1.10;1.10;;;9.50;99.90;;;;;;4974917;28;20202;-66
2022/04/04 09:54:13;;;;;;;1.00;1.00;;;9.60;99.90;;;;;;4975948;28;20352;-66
2022/04/04 09:56:41;;;;;;;1.07;1.07;;;9.60;99.90;;;;;;4976696;28;20290;-65
2022/04/04 09:59:11;;;;;;;1.20;1.10;;;9.60;99.90;;;;;;4972703;28;20234;-66
2022/04/04 10:01:39;;;;;;;1.00;1.00;;;9.60;99.90;;;;;;4976311;28;20211;-65
2022/04/04 10:04:09;;;;;;;1.40;1.30;;;9.70;99.90;;;;;;4972784;28;20233;-65
2022/04/04 10:06:36;;;;;;;1.50;1.50;;;9.60;99.90;;;;;;4980511;28;20303;-66
2022/04/04 10:09:05;;;;;;;1.10;1.10;;;9.60;99.90;;;;;;4979634;28;20230;-66
2022/04/04 10:11:34;;;;;;;1.40;1.30;;;9.70;99.90;;;;;;4977907;28;20206;-66
2022/04/04 10:14:02;;;;;;;1.30;1.30;;;9.80;99.90;;;;;;4979611;28;20293;-67
2022/04/04 10:16:30;;;;;;;1.40;1.40;;;9.90;99.90;;;;;;4976061;28;20238;-66
2022/04/04 10:18:57;;;;;;;1.20;1.20;;;10.00;99.90;;;;;;4981793;28;20687;-66
2022/04/04 10:21:26;;;;;;;1.20;1.20;;;10.10;99.90;;;;;;4976569;28;20206;-66
2022/04/04 10:23:56;;;;;;;1.10;1.10;;;10.20;99.90;;;;;;4980118;28;20233;-65
2022/04/04 10:26:29;;;;;;;1.40;1.30;;;10.20;99.90;;;;;;4986887;28;20635;-66
2022/04/04 10:29:13;;;;;;;1.20;1.20;;;10.40;99.90;;;;;;4980341;28;20202;-66
2022/04/04 10:31:46;;;;;;;1.20;1.20;;;10.30;99.90;;;;;;4980356;28;20623;-66
2022/04/04 10:34:15;;;;;;;1.30;1.30;;;10.40;99.90;;;;;;4982215;28;20232;-66
2022/04/04 10:37:01;;;;;;;1.30;1.30;;;10.50;99.90;;;;;;4979948;28;20198;-66
2022/04/04 10:39:44;;;;;;;1.30;1.30;;;10.50;99.90;;;;;;4981931;28;20202;-66
2022/04/04 10:42:32;;;;;;;1.20;1.20;;;10.50;99.90;;;;;;4982540;28;20233;-66
2022/04/04 10:45:03;;;;;;;1.37;1.37;;;10.60;99.90;;;;;;4984412;28;20209;-66
2022/04/04 10:47:31;;;;;;;1.30;1.30;;;10.60;99.90;;;;;;5001617;28;20198;-67
2022/04/04 10:50:16;;;;;;;1.23;1.23;;;10.50;99.90;;;;;;5003574;28;20277;-66
2022/04/04 10:52:44;;;;;;;1.27;1.27;;;10.50;99.90;;;;;;5005762;28;20850;-65
2022/04/04 10:55:41;;;;;;;1.10;1.10;;;10.70;99.90;;;;;;5008805;28;20260;-65
2022/04/04 10:58:14;;;;;;;1.20;1.20;;;10.90;99.90;;;;;;5008087;28;20240;-66
2022/04/04 11:01:07;;;;;;;1.20;1.20;;;11.00;99.90;;;;;;5002245;28;20202;-66
2022/04/04 11:03:36;;;;;;;1.20;1.20;;;11.00;99.90;;;;;;4985326;28;20647;-66
2022/04/04 11:09:18;;;;;;;1.10;1.10;;;11.30;99.90;;;;;;4988440;28;20252;-65
2022/04/04 11:11:48;;;;;;;1.57;1.50;;;11.60;99.90;;;;;;4987264;28;20253;-64
2022/04/04 11:14:19;;;;;;;1.17;1.17;;;11.60;99.90;;;;;;4983144;28;20230;-66
2022/04/04 11:17:23;;;;;;;1.20;1.20;;;11.70;99.90;;;;;;4986456;28;20206;-67
2022/04/04 11:19:53;;;;;;;1.10;1.10;;;11.60;99.90;;;;;;4988541;28;20505;-66
2022/04/04 11:22:22;;;;;;;1.10;1.10;;;11.60;99.90;;;;;;4989510;28;20226;-66
2022/04/04 11:24:53;;;;;;;1.03;1.03;;;11.40;99.90;;;;;;4992409;28;20220;-69
2022/04/04 11:27:21;;;;;;;1.13;1.13;;;11.40;99.90;;;;;;4989755;28;20695;-65
2022/04/04 11:29:49;;;;;;;1.03;1.03;;;11.50;99.90;;;;;;4984577;28;20210;-65
2022/04/04 11:32:26;;;;;;;1.20;1.20;;;11.50;99.90;;;;;;4995446;28;20265;-64
2022/04/04 11:34:56;;;;;;;1.20;1.20;;;11.60;99.90;;;;;;4987661;28;20283;-66
2022/04/04 11:37:24;;;;;;;1.13;1.10;;;11.60;99.90;;;;;;4988830;28;20202;-66
2022/04/04 11:39:53;;;;;;;1.30;1.30;;;11.60;99.90;;;;;;4982048;28;20297;-66
2022/04/04 11:42:22;;;;;;;1.13;1.13;;;11.60;99.90;;;;;;4990059;28;20288;-65
2022/04/04 11:44:50;;;;;;;1.20;1.20;;;11.30;99.90;;;;;;4988024;28;20206;-66
2022/04/04 11:47:18;;;;;;;1.30;1.30;;;11.40;99.90;;;;;;4979427;28;20792;-65
2022/04/04 11:49:46;;;;;;;1.23;1.23;;;11.30;99.90;;;;;;4982474;28;20653;-66
2022/04/04 11:52:18;;;;;;;1.20;1.20;;;11.30;99.90;;;;;;4982430;28;20214;-65
2022/04/04 11:54:49;;;;;;;1.20;1.20;;;11.50;99.90;;;;;;4981095;28;20217;-65
2022/04/04 11:57:17;;;;;;;1.00;1.00;;;11.70;99.90;;;;;;4985369;28;20206;-65
2022/04/04 11:59:45;;;;;;;1.30;1.30;;;11.80;99.90;;;;;;4979437;28;20922;-65
2022/04/04 12:02:14;;;;;;;1.20;1.10;;;11.70;99.90;;;;;;4987944;28;20284;-65
2022/04/04 12:04:43;;;;;;;1.20;1.20;;;11.60;99.90;;;;;;4988412;28;20205;-66
2022/04/04 12:07:11;;;;;;;1.17;1.17;;;11.60;99.90;;;;;;4987222;28;20202;-65
2022/04/04 12:09:39;;;;;;;1.40;1.40;;;11.60;99.90;;;;;;4983571;28;20238;-65
2022/04/04 12:12:08;;;;;;;2.00;1.47;;;11.10;99.90;;;;;;4984342;28;20209;-67
2022/04/04 12:14:38;;;;;;;1.30;1.30;;;10.70;99.90;;;;;;4988192;28;20224;-66
2022/04/04 12:17:05;;;;;;;1.20;1.20;;;10.70;99.90;;;;;;4982922;28;20214;-67
2022/04/04 12:19:41;;;;;;;1.50;1.40;;;11.10;99.90;;;;;;4983460;28;20303;-65
2022/04/04 12:24:55;;;;;;;1.33;1.33;;;11.40;99.90;;;;;;4977832;28;20297;-65
2022/04/04 12:24:58;;;;;;;1.40;1.30;;;11.50;99.90;;;;;;4993219;28;20268;-65
2022/04/04 12:27:40;;;;;;;1.37;1.33;;;11.60;99.90;;;;;;4996806;28;20206;-65
2022/04/04 12:30:08;;;;;;;1.43;1.33;;;11.60;99.90;;;;;;4997538;28;20227;-65
2022/04/04 12:32:41;;;;;;;1.23;1.20;;;11.40;99.90;;;;;;4985829;28;20257;-66
2022/04/04 12:35:12;;;;;;;1.20;1.20;;;11.40;99.90;;;;;;4984047;28;20689;-66
2022/04/04 12:37:51;;;;;;;1.10;1.10;;;11.60;99.90;;;;;;4992946;28;20229;-65
2022/04/04 12:40:23;;;;;;;1.30;1.30;;;11.70;99.90;;;;;;4985376;28;20203;-65
2022/04/04 12:43:10;;;;;;;1.40;1.30;;;11.80;99.90;;;;;;4996345;28;20326;-65
2022/04/04 12:45:49;;;;;;;1.30;1.30;;;11.90;99.90;;;;;;4990263;28;20675;-66
2022/04/04 12:48:21;;;;;;;1.23;1.23;;;12.00;99.90;;;;;;4989672;28;20217;-66
2022/04/04 12:50:53;;;;;;;1.30;1.30;;;12.10;99.90;;;;;;4980654;28;20198;-65
2022/04/04 12:53:21;;;;;;;1.10;1.10;;;12.30;99.90;;;;;;4988070;28;20237;-66
2022/04/04 12:56:14;;;;;;;1.50;1.40;;;12.20;99.90;;;;;;4979630;28;20281;-66
2022/04/04 12:58:41;;;;;;;1.37;1.30;;;12.20;99.90;;;;;;4980747;28;20210;-66
2022/04/04 13:01:16;;;;;;;1.20;1.20;;;12.20;99.90;;;;;;4980767;28;20210;-66
2022/04/04 13:03:57;;;;;;;1.20;1.20;;;12.20;99.90;;;;;;4978757;28;20652;-67
2022/04/04 13:06:30;;;;;;;1.20;1.20;;;12.20;99.90;;;;;;4982051;28;20202;-66
2022/04/04 13:09:03;;;;;;;1.27;1.27;;;12.30;99.90;;;;;;4980193;28;20206;-67